createdAt,value
2022-11-10T00:01:51.912Z,10.62
2022-11-10T00:03:53.525Z,10.59
2022-11-10T00:05:55.833Z,10.58
2022-11-10T00:07:57.929Z,10.53
2022-11-10T00:09:59.620Z,10.49
2022-11-10T00:12:01.044Z,10.49
2022-11-10T00:14:21.055Z,10.48
2022-11-10T00:16:40.794Z,10.47
2022-11-10T00:18:42.211Z,10.47
2022-11-10T00:20:43.658Z,10.45
2022-11-10T00:22:45.118Z,10.46
2022-11-10T00:24:47.063Z,10.44
2022-11-10T00:26:48.519Z,10.43
2022-11-10T00:28:49.990Z,10.42
2022-11-10T00:30:51.639Z,10.44
2022-11-10T00:32:53.082Z,10.42
2022-11-10T00:34:54.504Z,10.44
2022-11-10T00:36:55.945Z,10.44
2022-11-10T00:38:57.427Z,10.44
2022-11-10T00:41:02.335Z,10.44
2022-11-10T00:43:03.743Z,10.42
2022-11-10T00:45:05.907Z,10.41
2022-11-10T00:47:07.343Z,10.43
2022-11-10T00:49:08.831Z,10.42
2022-11-10T00:51:24.030Z,10.41
2022-11-10T00:53:25.558Z,10.35
2022-11-10T00:55:27.019Z,10.34
2022-11-10T00:57:28.435Z,10.33
2022-11-10T00:59:29.862Z,10.32
2022-11-10T01:01:31.498Z,10.30
2022-11-10T01:03:33.133Z,10.29
2022-11-10T01:05:38.345Z,10.28
2022-11-10T01:07:39.810Z,10.26
2022-11-10T01:09:41.247Z,10.25
2022-11-10T01:11:42.758Z,10.25
2022-11-10T01:13:45.042Z,10.24
2022-11-10T01:15:46.477Z,10.21
2022-11-10T01:17:48.087Z,10.19
2022-11-10T01:19:49.491Z,10.20
2022-11-10T01:21:52.248Z,10.17
2022-11-10T01:23:53.970Z,10.16
2022-11-10T01:26:04.716Z,10.16
2022-11-10T01:28:06.152Z,10.16
2022-11-10T01:30:08.037Z,10.15
2022-11-10T01:32:09.504Z,10.12
2022-11-10T01:34:10.919Z,10.12
2022-11-10T01:36:12.815Z,10.13
2022-11-10T01:38:14.239Z,10.12
2022-11-10T01:40:15.791Z,10.11
2022-11-10T01:42:24.669Z,10.13
2022-11-10T01:44:26.027Z,10.05
2022-11-10T01:46:27.482Z,10.05
2022-11-10T01:48:59.931Z,10.04
2022-11-10T01:51:14.482Z,10.04
2022-11-10T01:53:23.736Z,10.04
2022-11-10T01:55:26.192Z,10.03
2022-11-10T01:57:28.275Z,10.01
2022-11-10T01:59:35.471Z,10.02
2022-11-10T02:01:36.893Z,10.01
2022-11-10T02:04:00.183Z,9.95
2022-11-10T02:06:02.086Z,9.93
2022-11-10T02:08:05.285Z,9.94
2022-11-10T02:10:14.392Z,9.94
2022-11-10T02:12:16.101Z,9.93
2022-11-10T02:14:17.722Z,9.91
2022-11-10T02:16:19.394Z,9.90
2022-11-10T02:18:20.840Z,9.90
2022-11-10T02:20:22.388Z,9.89
2022-11-10T02:22:23.845Z,9.87
2022-11-10T02:24:25.272Z,9.86
2022-11-10T02:26:30.150Z,9.84
2022-11-10T02:28:38.334Z,9.84
2022-11-10T02:30:39.776Z,9.81
2022-11-10T02:32:41.248Z,9.81
2022-11-10T02:34:42.922Z,9.76
2022-11-10T02:36:44.360Z,9.75
2022-11-10T02:38:45.763Z,9.75
2022-11-10T02:40:49.234Z,9.74
2022-11-10T02:42:50.646Z,9.73
2022-11-10T02:44:52.111Z,9.71
2022-11-10T02:46:53.579Z,9.66
2022-11-10T02:48:55.048Z,9.66
2022-11-10T02:50:56.476Z,9.66
2022-11-10T02:52:57.889Z,9.64
2022-11-10T02:54:59.363Z,9.64
2022-11-10T02:57:02.711Z,9.62
2022-11-10T02:59:04.862Z,9.61
2022-11-10T03:01:07.003Z,9.59
2022-11-10T03:03:08.511Z,9.58
2022-11-10T03:05:10.430Z,9.56
2022-11-10T03:07:11.945Z,9.53
2022-11-10T03:09:13.383Z,9.54
2022-11-10T03:11:14.801Z,9.54
2022-11-10T03:13:16.244Z,9.54
2022-11-10T03:15:17.737Z,9.53
2022-11-10T03:17:19.255Z,9.52
2022-11-10T03:19:20.673Z,9.50
2022-11-10T03:21:22.205Z,9.49
2022-11-10T03:23:24.616Z,9.49
2022-11-10T03:25:26.324Z,9.49
2022-11-10T03:27:27.898Z,9.51
2022-11-10T03:29:29.383Z,9.50
2022-11-10T03:31:30.799Z,9.49
2022-11-10T03:33:32.904Z,9.50
2022-11-10T03:35:34.417Z,9.49
2022-11-10T03:37:35.842Z,9.52
2022-11-10T03:39:37.649Z,9.52
2022-11-10T03:41:39.062Z,9.49
2022-11-10T03:43:40.507Z,9.48
2022-11-10T03:45:44.456Z,9.47
2022-11-10T03:47:47.828Z,9.44
2022-11-10T03:49:49.235Z,9.43
2022-11-10T03:51:50.660Z,9.43
2022-11-10T03:53:52.116Z,9.40
2022-11-10T03:55:53.531Z,9.40
2022-11-10T03:57:54.938Z,9.39
2022-11-10T03:59:56.376Z,9.40
2022-11-10T04:01:57.946Z,9.41
2022-11-10T04:03:59.425Z,9.41
2022-11-10T04:06:19.373Z,9.40
2022-11-10T04:08:39.150Z,9.35
2022-11-10T04:10:40.598Z,9.33
2022-11-10T04:13:00.665Z,9.33
2022-11-10T04:15:20.490Z,9.31
2022-11-10T04:17:21.928Z,9.31
2022-11-10T04:19:23.525Z,9.28
2022-11-10T04:21:24.973Z,9.30
2022-11-10T04:23:34.841Z,9.30
2022-11-10T04:25:56.226Z,9.29
2022-11-10T04:27:57.643Z,9.28
2022-11-10T04:29:59.051Z,9.29
2022-11-10T04:32:00.505Z,9.29
2022-11-10T04:34:01.907Z,9.30
2022-11-10T04:36:04.248Z,9.30
2022-11-10T04:38:05.684Z,9.30
2022-11-10T04:40:07.550Z,9.30
2022-11-10T04:42:09.002Z,9.29
2022-11-10T04:44:10.420Z,9.27
2022-11-10T04:46:19.444Z,9.28
2022-11-10T04:48:20.958Z,9.28
2022-11-10T04:50:22.417Z,9.29
2022-11-10T04:52:23.935Z,9.28
2022-11-10T04:54:25.492Z,9.27
2022-11-10T04:56:27.586Z,9.27
2022-11-10T04:58:29.079Z,9.26
2022-11-10T05:00:30.540Z,9.25
2022-11-10T05:02:35.615Z,9.26
2022-11-10T05:04:40.746Z,9.26
2022-11-10T05:06:42.270Z,9.25
2022-11-10T05:08:44.451Z,9.27
2022-11-10T05:10:45.870Z,9.25
2022-11-10T05:12:47.317Z,9.26
2022-11-10T05:14:48.741Z,9.26
2022-11-10T05:16:50.160Z,9.24
2022-11-10T05:18:54.180Z,9.25
2022-11-10T05:20:55.640Z,9.25
2022-11-10T05:23:15.503Z,9.25
2022-11-10T05:25:17.035Z,9.25
2022-11-10T05:27:18.498Z,9.27
2022-11-10T05:29:19.898Z,9.27
2022-11-10T05:31:21.321Z,9.29
2022-11-10T05:33:23.121Z,9.30
2022-11-10T05:35:25.438Z,9.31
2022-11-10T05:37:26.892Z,9.33
2022-11-10T05:39:28.316Z,9.33
2022-11-10T05:41:29.757Z,9.33
2022-11-10T05:43:31.146Z,9.34
2022-11-10T05:45:32.569Z,9.35
2022-11-10T05:47:37.272Z,9.36
2022-11-10T05:49:38.678Z,9.37
2022-11-10T05:51:40.093Z,9.38
2022-11-10T05:53:41.505Z,9.40
2022-11-10T05:55:43.011Z,9.40
2022-11-10T05:57:48.818Z,9.41
2022-11-10T05:59:50.226Z,9.41
2022-11-10T06:01:51.812Z,9.44
2022-11-10T06:03:53.264Z,9.47
2022-11-10T06:05:54.763Z,9.49
2022-11-10T06:07:56.556Z,9.51
2022-11-10T06:09:57.969Z,9.53
2022-11-10T06:11:59.403Z,9.56
2022-11-10T06:14:00.919Z,9.57
2022-11-10T06:16:02.351Z,9.58
2022-11-10T06:18:03.903Z,9.61
2022-11-10T06:20:05.879Z,9.65
2022-11-10T06:22:08.026Z,9.66
2022-11-10T06:24:11.078Z,9.67
2022-11-10T06:26:12.528Z,9.69
2022-11-10T06:28:14.960Z,9.72
2022-11-10T06:30:16.797Z,9.75
2022-11-10T06:32:18.232Z,9.77
2022-11-10T06:34:19.640Z,9.79
2022-11-10T06:36:21.667Z,9.80
2022-11-10T06:38:23.117Z,9.82
2022-11-10T06:40:24.560Z,9.82
2022-11-10T06:42:25.963Z,9.83
2022-11-10T06:44:27.529Z,9.84
2022-11-10T06:46:29.057Z,9.85
2022-11-10T06:48:30.491Z,9.87
2022-11-10T06:50:32.334Z,9.89
2022-11-10T06:52:33.824Z,9.90
2022-11-10T06:54:35.308Z,9.92
2022-11-10T06:56:36.839Z,9.94
2022-11-10T06:58:38.250Z,9.94
2022-11-10T07:00:40.351Z,9.97
2022-11-10T07:02:41.914Z,10.00
2022-11-10T07:04:43.344Z,10.02
2022-11-10T07:06:47.723Z,10.05
2022-11-10T07:08:49.371Z,10.07
2022-11-10T07:10:53.178Z,10.10
2022-11-10T07:12:59.219Z,10.15
2022-11-10T07:15:00.653Z,10.15
2022-11-10T07:17:02.102Z,10.17
2022-11-10T07:19:03.748Z,10.17
2022-11-10T07:21:06.408Z,10.19
2022-11-10T07:23:08.593Z,10.20
2022-11-10T07:25:11.328Z,10.22
2022-11-10T07:27:12.753Z,10.24
2022-11-10T07:29:14.187Z,10.27
2022-11-10T07:31:15.601Z,10.27
2022-11-10T07:33:17.036Z,10.29
2022-11-10T07:35:18.469Z,10.32
2022-11-10T07:37:19.866Z,10.35
2022-11-10T07:39:21.313Z,10.38
2022-11-10T07:41:22.845Z,10.39
2022-11-10T07:43:25.732Z,10.44
2022-11-10T07:45:28.246Z,10.47
2022-11-10T07:47:29.682Z,10.50
2022-11-10T07:49:31.097Z,10.51
2022-11-10T07:51:32.512Z,10.53
2022-11-10T07:53:34.316Z,10.54
2022-11-10T07:55:38.264Z,10.54
2022-11-10T07:57:39.965Z,10.55
2022-11-10T07:59:41.359Z,10.56
2022-11-10T08:01:42.864Z,10.58
2022-11-10T08:03:44.344Z,10.61
2022-11-10T08:05:45.840Z,10.59
2022-11-10T08:07:47.332Z,10.60
2022-11-10T08:09:48.831Z,10.60
2022-11-10T08:11:50.253Z,10.62
2022-11-10T08:13:51.660Z,10.64
2022-11-10T08:15:53.093Z,10.65
2022-11-10T08:18:00.111Z,10.70
2022-11-10T08:20:01.792Z,10.74
2022-11-10T08:22:03.204Z,10.78
2022-11-10T08:24:04.750Z,10.83
2022-11-10T08:26:06.178Z,10.87
2022-11-10T08:28:18.004Z,10.88
2022-11-10T08:30:19.427Z,10.89
2022-11-10T08:32:21.239Z,10.92
2022-11-10T08:34:23.036Z,10.95
2022-11-10T08:36:24.635Z,10.96
2022-11-10T08:38:26.060Z,10.97
2022-11-10T08:40:27.827Z,10.97
2022-11-10T08:42:29.294Z,10.97
2022-11-10T08:44:30.697Z,10.98
2022-11-10T08:46:32.126Z,10.99
2022-11-10T08:48:33.962Z,11.00
2022-11-10T08:50:35.882Z,11.01
2022-11-10T08:52:37.446Z,11.04
2022-11-10T08:54:38.850Z,11.09
2022-11-10T08:56:40.291Z,11.19
2022-11-10T08:58:48.782Z,11.27
2022-11-10T09:00:52.465Z,11.34
2022-11-10T09:02:55.478Z,11.40
2022-11-10T09:04:56.959Z,11.42
2022-11-10T09:06:58.416Z,11.44
2022-11-10T09:08:59.847Z,11.45
2022-11-10T09:11:04.633Z,11.48
2022-11-10T09:13:06.786Z,11.49
2022-11-10T09:15:09.911Z,11.53
2022-11-10T09:17:11.348Z,11.58
2022-11-10T09:19:18.467Z,11.60
2022-11-10T09:21:21.223Z,11.64
2022-11-10T09:23:24.980Z,11.69
2022-11-10T09:25:26.842Z,11.74
2022-11-10T09:27:28.299Z,11.79
2022-11-10T09:29:29.692Z,11.83
2022-11-10T09:31:31.163Z,11.82
2022-11-10T09:33:32.562Z,11.83
2022-11-10T09:35:34.273Z,11.85
2022-11-10T09:37:40.053Z,11.91
2022-11-10T09:39:41.558Z,12.00
2022-11-10T09:41:44.606Z,12.09
2022-11-10T09:44:04.666Z,12.10
2022-11-10T09:46:16.226Z,12.11
2022-11-10T09:48:25.770Z,12.16
2022-11-10T09:50:41.979Z,12.12
2022-11-10T09:52:45.532Z,12.14
2022-11-10T09:54:56.716Z,12.22
2022-11-10T09:57:02.409Z,12.27
2022-11-10T09:59:15.754Z,12.33
2022-11-10T10:01:32.279Z,12.39
2022-11-10T10:03:37.337Z,12.48
2022-11-10T10:05:52.321Z,12.54
2022-11-10T10:08:12.564Z,12.67
2022-11-10T10:10:32.145Z,12.83
2022-11-10T10:12:39.313Z,12.88
2022-11-10T10:15:05.139Z,13.03
2022-11-10T10:17:15.460Z,13.12
2022-11-10T10:19:49.434Z,13.17
2022-11-10T10:22:04.666Z,13.23
2022-11-10T10:24:19.835Z,13.27
2022-11-10T10:26:27.552Z,13.23
2022-11-10T10:28:35.408Z,13.22
2022-11-10T10:30:36.854Z,13.20
2022-11-10T10:32:38.262Z,13.15
2022-11-10T10:36:44.392Z,13.15
2022-11-10T10:38:49.851Z,13.15
2022-11-10T10:40:52.753Z,13.16
2022-11-10T10:42:54.283Z,13.29
2022-11-10T10:45:21.918Z,13.46
2022-11-10T10:47:36.381Z,13.53
2022-11-10T10:49:37.841Z,13.47
2022-11-10T10:51:39.326Z,13.40
2022-11-10T10:53:47.878Z,13.43
2022-11-10T10:55:54.811Z,13.61
2022-11-10T10:58:02.832Z,13.72
2022-11-10T11:00:30.765Z,13.86
2022-11-10T11:02:32.488Z,14.06
2022-11-10T11:04:36.475Z,14.68
2022-11-10T11:06:37.960Z,15.29
2022-11-10T11:08:39.578Z,15.63
2022-11-10T11:10:45.271Z,15.88
2022-11-10T11:12:46.831Z,16.18
2022-11-10T11:14:48.400Z,16.41
2022-11-10T11:16:51.145Z,16.72
2022-11-10T11:18:52.578Z,16.93
2022-11-10T11:21:13.066Z,17.15
2022-11-10T11:23:51.896Z,17.13
2022-11-10T11:25:57.721Z,17.17
2022-11-10T11:28:26.743Z,17.10
2022-11-10T11:30:41.925Z,16.78
2022-11-10T11:33:04.939Z,16.52
2022-11-10T11:35:12.389Z,16.47
2022-11-10T11:37:32.849Z,16.05
2022-11-10T11:39:34.212Z,15.64
2022-11-10T11:41:46.627Z,15.38
2022-11-10T11:44:25.586Z,15.25
2022-11-10T11:46:33.090Z,15.16
2022-11-10T11:48:52.857Z,15.01
2022-11-10T11:50:57.965Z,14.92
2022-11-10T11:53:14.234Z,14.86
2022-11-10T11:55:26.843Z,14.84
2022-11-10T11:57:45.389Z,14.81
2022-11-10T11:59:52.692Z,14.66
2022-11-10T12:02:18.350Z,14.58
2022-11-10T12:04:22.667Z,14.57
2022-11-10T12:06:47.770Z,14.58
2022-11-10T12:09:01.869Z,14.56
2022-11-10T12:11:31.570Z,14.56
2022-11-10T12:13:51.369Z,14.52
2022-11-10T12:15:59.444Z,14.55
2022-11-10T12:18:03.814Z,14.50
2022-11-10T12:20:26.055Z,14.42
2022-11-10T12:22:41.072Z,14.37
2022-11-10T12:24:54.826Z,14.34
2022-11-10T12:27:24.702Z,14.34
2022-11-10T12:29:41.154Z,14.37
2022-11-10T12:31:46.060Z,14.33
2022-11-10T12:33:57.139Z,14.31
2022-11-10T12:36:03.238Z,14.30
2022-11-10T12:38:11.889Z,14.30
2022-11-10T12:40:19.322Z,14.29
2022-11-10T12:42:24.248Z,14.24
2022-11-10T12:44:33.741Z,14.20
2022-11-10T12:46:35.203Z,14.19
2022-11-10T12:48:53.524Z,14.22
2022-11-10T12:51:12.507Z,14.21
2022-11-10T12:53:24.907Z,14.22
2022-11-10T12:55:36.697Z,14.22
2022-11-10T12:57:38.428Z,14.21
2022-11-10T12:59:48.724Z,14.21
2022-11-10T13:02:01.474Z,14.21
2022-11-10T13:04:03.008Z,14.21
2022-11-10T13:06:07.448Z,14.24
2022-11-10T13:08:29.575Z,14.24
2022-11-10T13:10:31.246Z,14.24
2022-11-10T13:12:33.060Z,14.29
2022-11-10T13:14:34.643Z,14.29
2022-11-10T13:16:39.167Z,14.30
2022-11-10T13:18:40.554Z,14.29
2022-11-10T13:20:45.970Z,14.30
2022-11-10T13:22:47.420Z,14.28
2022-11-10T13:24:48.911Z,14.29
2022-11-10T13:26:54.212Z,14.30
2022-11-10T13:28:57.790Z,14.29
2022-11-10T13:30:59.579Z,14.27
2022-11-10T13:33:23.015Z,14.27
2022-11-10T13:35:27.940Z,14.24
2022-11-10T13:37:29.332Z,14.21
2022-11-10T13:39:34.072Z,14.20
2022-11-10T13:41:48.992Z,14.22
2022-11-10T13:43:53.337Z,14.20
2022-11-10T13:46:05.584Z,14.17
2022-11-10T13:48:12.960Z,14.17
2022-11-10T13:50:28.697Z,14.15
2022-11-10T13:52:39.403Z,14.14
2022-11-10T13:55:10.492Z,14.13
2022-11-10T13:57:23.744Z,14.12
2022-11-10T13:59:28.525Z,14.12
2022-11-10T14:01:30.513Z,14.11
2022-11-10T14:03:47.643Z,14.13
2022-11-10T14:06:04.237Z,14.13
2022-11-10T14:08:05.624Z,14.11
2022-11-10T14:10:23.625Z,14.12
2022-11-10T14:12:30.781Z,14.13
2022-11-10T14:14:51.369Z,14.11
2022-11-10T14:16:54.393Z,14.12
2022-11-10T14:19:04.985Z,14.13
2022-11-10T14:21:11.331Z,14.12
2022-11-10T14:23:22.761Z,14.13
2022-11-10T14:25:27.771Z,14.14
2022-11-10T14:27:33.549Z,14.14
2022-11-10T14:29:40.608Z,14.19
2022-11-10T14:31:44.033Z,14.20
2022-11-10T14:33:57.158Z,14.20
2022-11-10T14:36:01.654Z,14.17
2022-11-10T14:38:06.126Z,14.18
2022-11-10T14:40:15.265Z,14.18
2022-11-10T14:42:22.541Z,14.18
2022-11-10T14:44:26.627Z,14.18
2022-11-10T14:46:28.466Z,14.18
2022-11-10T14:48:32.742Z,14.17
2022-11-10T14:50:35.449Z,14.17
2022-11-10T14:52:41.380Z,14.15
2022-11-10T14:54:46.497Z,14.14
2022-11-10T14:56:48.364Z,14.08
2022-11-10T14:58:51.165Z,14.09
2022-11-10T15:00:53.852Z,14.08
2022-11-10T15:02:57.491Z,14.08
2022-11-10T15:04:59.428Z,14.08
2022-11-10T15:07:01.046Z,14.05
2022-11-10T15:09:14.487Z,14.03
2022-11-10T15:11:54.406Z,14.00
2022-11-10T15:13:55.840Z,13.98
2022-11-10T15:16:22.163Z,13.97
2022-11-10T15:18:29.293Z,13.96
2022-11-10T15:20:30.782Z,13.97
2022-11-10T15:22:36.368Z,13.97
2022-11-10T15:24:42.002Z,13.96
2022-11-10T15:26:43.616Z,13.95
2022-11-10T15:28:46.895Z,13.95
2022-11-10T15:30:57.689Z,13.97
2022-11-10T15:33:02.207Z,13.96
2022-11-10T15:35:29.050Z,13.93
2022-11-10T15:37:31.861Z,13.94
2022-11-10T15:39:33.414Z,13.95
2022-11-10T15:41:35.197Z,13.93
2022-11-10T15:43:36.772Z,13.92
2022-11-10T15:45:38.503Z,13.91
2022-11-10T15:47:41.182Z,13.91
2022-11-10T15:49:43.803Z,13.92
2022-11-10T15:51:45.280Z,13.89
2022-11-10T15:53:48.892Z,13.89
2022-11-10T15:55:50.355Z,13.88
2022-11-10T15:57:51.827Z,13.86
2022-11-10T15:59:53.433Z,13.86
2022-11-10T16:01:55.186Z,13.84
2022-11-10T16:03:56.828Z,13.83
2022-11-10T16:05:58.442Z,13.82
2022-11-10T16:07:59.895Z,13.82
2022-11-10T16:10:01.485Z,13.81
2022-11-10T16:12:03.204Z,13.79
2022-11-10T16:14:05.399Z,13.75
2022-11-10T16:16:07.221Z,13.74
2022-11-10T16:18:17.530Z,13.72
2022-11-10T16:20:18.994Z,13.71
2022-11-10T16:22:20.412Z,13.71
2022-11-10T16:24:21.861Z,13.68
2022-11-10T16:26:26.234Z,13.63
2022-11-10T16:28:28.018Z,13.59
2022-11-10T16:30:30.305Z,13.59
2022-11-10T16:32:31.808Z,13.58
2022-11-10T16:34:33.321Z,13.57
2022-11-10T16:36:34.993Z,13.55
2022-11-10T16:38:36.435Z,13.55
2022-11-10T16:40:37.901Z,13.53
2022-11-10T16:42:39.334Z,13.51
2022-11-10T16:44:42.709Z,13.50
2022-11-10T16:46:47.554Z,13.50
2022-11-10T16:48:51.105Z,13.49
2022-11-10T16:50:54.284Z,13.47
2022-11-10T16:52:56.558Z,13.44
2022-11-10T16:54:58.019Z,13.43
2022-11-10T16:56:59.522Z,13.44
2022-11-10T16:59:01.056Z,13.44
2022-11-10T17:01:02.667Z,13.42
2022-11-10T17:03:15.184Z,13.40
2022-11-10T17:05:16.865Z,13.38
2022-11-10T17:07:24.351Z,13.41
2022-11-10T17:09:26.660Z,13.40
2022-11-10T17:11:28.187Z,13.41
2022-11-10T17:13:29.622Z,13.42
2022-11-10T17:15:32.252Z,13.43
2022-11-10T17:17:35.726Z,13.45
2022-11-10T17:19:37.268Z,13.46
2022-11-10T17:21:40.288Z,13.47
2022-11-10T17:23:42.472Z,13.48
2022-11-10T17:25:44.499Z,13.44
2022-11-10T17:27:45.971Z,13.44
2022-11-10T17:29:47.526Z,13.46
2022-11-10T17:31:50.458Z,13.44
2022-11-10T17:33:52.165Z,13.43
2022-11-10T17:35:54.341Z,13.45
2022-11-10T17:37:58.143Z,13.45
2022-11-10T17:40:07.222Z,13.47
2022-11-10T17:42:13.658Z,13.46
2022-11-10T17:44:16.666Z,13.48
2022-11-10T17:46:18.124Z,13.48
2022-11-10T17:48:19.621Z,13.48
2022-11-10T17:50:23.113Z,13.49
2022-11-10T17:52:24.575Z,13.48
2022-11-10T17:54:25.988Z,13.46
2022-11-10T17:56:27.431Z,13.47
2022-11-10T17:58:30.510Z,13.45
2022-11-10T18:00:31.945Z,13.44
2022-11-10T18:02:33.372Z,13.43
2022-11-10T18:04:34.781Z,13.43
2022-11-10T18:06:36.557Z,13.42
2022-11-10T18:08:38.514Z,13.41
2022-11-10T18:10:51.908Z,13.41
2022-11-10T18:12:53.535Z,13.38
2022-11-10T18:14:55.002Z,13.35
2022-11-10T18:16:56.493Z,13.35
2022-11-10T18:18:58.716Z,13.35
2022-11-10T18:21:00.184Z,13.33
2022-11-10T18:23:01.672Z,13.32
2022-11-10T18:25:03.740Z,13.30
2022-11-10T18:27:05.175Z,13.28
2022-11-10T18:29:06.630Z,13.26
2022-11-10T18:31:12.647Z,13.23
2022-11-10T18:33:14.101Z,13.19
2022-11-10T18:35:15.592Z,13.16
2022-11-10T18:37:17.802Z,13.15
2022-11-10T18:39:19.236Z,13.08
2022-11-10T18:41:39.327Z,13.05
2022-11-10T18:43:40.731Z,12.97
2022-11-10T18:45:42.301Z,12.93
2022-11-10T18:47:43.713Z,12.87
2022-11-10T18:49:45.201Z,12.82
2022-11-10T18:51:46.708Z,12.78
2022-11-10T18:53:48.204Z,12.73
2022-11-10T18:55:56.310Z,12.68
2022-11-10T18:57:57.765Z,12.64
2022-11-10T18:59:59.490Z,12.60
2022-11-10T19:02:01.000Z,12.59
2022-11-10T19:04:02.499Z,12.57
2022-11-10T19:06:04.842Z,12.55
2022-11-10T19:08:07.991Z,12.53
2022-11-10T19:10:09.552Z,12.50
2022-11-10T19:12:11.991Z,12.47
2022-11-10T19:14:13.450Z,12.47
2022-11-10T19:16:17.634Z,12.44
2022-11-10T19:18:19.092Z,12.39
2022-11-10T19:20:20.537Z,12.37
2022-11-10T19:22:22.257Z,12.34
2022-11-10T19:24:28.066Z,12.32
2022-11-10T19:26:29.905Z,12.30
2022-11-10T19:28:31.473Z,12.26
2022-11-10T19:30:32.926Z,12.24
2022-11-10T19:32:34.435Z,12.21
2022-11-10T19:34:36.058Z,12.22
2022-11-10T19:36:37.944Z,12.18
2022-11-10T19:38:40.497Z,12.14
2022-11-10T19:40:42.596Z,12.10
2022-11-10T19:42:44.124Z,12.10
2022-11-10T19:44:45.606Z,12.08
2022-11-10T19:46:47.046Z,12.05
2022-11-10T19:48:48.814Z,12.00
2022-11-10T19:50:54.530Z,11.99
2022-11-10T19:52:55.983Z,11.97
2022-11-10T19:54:57.456Z,11.97
2022-11-10T19:56:59.086Z,11.96
2022-11-10T19:59:00.582Z,11.97
2022-11-10T20:01:02.195Z,11.97
2022-11-10T20:03:03.745Z,11.92
2022-11-10T20:05:16.121Z,11.88
2022-11-10T20:07:36.221Z,11.85
2022-11-10T20:09:37.667Z,11.85
2022-11-10T20:11:39.105Z,11.87
2022-11-10T20:13:41.070Z,11.83
2022-11-10T20:15:43.589Z,11.82
2022-11-10T20:17:45.067Z,11.80
2022-11-10T20:19:46.503Z,11.81
2022-11-10T20:21:47.997Z,11.79
2022-11-10T20:23:54.034Z,11.76
2022-11-10T20:26:14.074Z,11.74
2022-11-10T20:28:15.507Z,11.73
2022-11-10T20:30:22.448Z,11.72
2022-11-10T20:32:26.410Z,11.70
2022-11-10T20:34:27.854Z,11.71
2022-11-10T20:36:30.804Z,11.69
2022-11-10T20:38:32.323Z,11.67
2022-11-10T20:40:48.898Z,11.67
2022-11-10T20:42:50.529Z,11.68
2022-11-10T20:44:51.986Z,11.68
2022-11-10T20:46:54.778Z,11.64
2022-11-10T20:48:56.491Z,11.60
2022-11-10T20:50:57.945Z,11.59
2022-11-10T20:52:59.457Z,11.57
2022-11-10T20:55:05.378Z,11.57
2022-11-10T20:57:06.872Z,11.56
2022-11-10T20:59:08.355Z,11.56
2022-11-10T21:01:15.146Z,11.51
2022-11-10T21:03:16.668Z,11.52
2022-11-10T21:05:18.130Z,11.50
2022-11-10T21:07:19.571Z,11.48
2022-11-10T21:09:21.107Z,11.47
2022-11-10T21:11:41.393Z,11.46
2022-11-10T21:13:42.934Z,11.43
2022-11-10T21:15:50.023Z,11.43
2022-11-10T21:17:51.497Z,11.43
2022-11-10T21:19:55.046Z,11.43
2022-11-10T21:21:56.515Z,11.43
2022-11-10T21:23:57.967Z,11.41
2022-11-10T21:26:01.123Z,11.40
2022-11-10T21:28:02.880Z,11.38
2022-11-10T21:30:05.017Z,11.38
2022-11-10T21:32:08.575Z,11.36
2022-11-10T21:34:10.081Z,11.36
2022-11-10T21:36:11.629Z,11.33
2022-11-10T21:38:14.318Z,11.33
2022-11-10T21:40:16.157Z,11.32
2022-11-10T21:42:20.728Z,11.29
2022-11-10T21:44:22.181Z,11.26
2022-11-10T21:46:23.851Z,11.27
2022-11-10T21:48:25.266Z,11.26
2022-11-10T21:50:26.773Z,11.26
2022-11-10T21:52:34.640Z,11.26
2022-11-10T21:54:36.133Z,11.26
2022-11-10T21:56:37.813Z,11.30
2022-11-10T21:58:39.599Z,11.29
2022-11-10T22:00:41.040Z,11.27
2022-11-10T22:02:42.563Z,11.25
2022-11-10T22:04:44.070Z,11.25
2022-11-10T22:07:04.226Z,11.26
2022-11-10T22:09:05.721Z,11.26
2022-11-10T22:11:31.904Z,11.27
2022-11-10T22:13:51.679Z,11.26
2022-11-10T22:16:11.645Z,11.27
2022-11-10T22:18:34.082Z,11.28
2022-11-10T22:20:35.522Z,11.26
2022-11-10T22:22:36.977Z,11.28
2022-11-10T22:24:38.500Z,11.25
2022-11-10T22:26:39.929Z,11.25
2022-11-10T22:28:41.862Z,11.25
2022-11-10T22:30:43.303Z,11.24
2022-11-10T22:32:44.716Z,11.24
2022-11-10T22:34:46.143Z,11.22
2022-11-10T22:36:50.055Z,11.19
2022-11-10T22:38:51.497Z,11.19
2022-11-10T22:41:11.597Z,11.18
2022-11-10T22:43:38.929Z,11.14
2022-11-10T22:45:44.728Z,11.10
2022-11-10T22:48:04.319Z,11.02
2022-11-10T22:50:06.309Z,11.00
2022-11-10T22:52:07.741Z,11.00
2022-11-10T22:54:11.708Z,11.00
2022-11-10T22:56:13.433Z,11.00
2022-11-10T22:58:14.875Z,11.01
2022-11-10T23:00:16.879Z,11.04
2022-11-10T23:02:18.314Z,11.04
2022-11-10T23:04:19.824Z,11.04
2022-11-10T23:06:21.277Z,11.06
2022-11-10T23:08:22.739Z,11.05
2022-11-10T23:10:24.185Z,11.05
2022-11-10T23:12:25.595Z,11.07
2022-11-10T23:14:27.037Z,11.06
2022-11-10T23:16:32.045Z,11.04
2022-11-10T23:18:33.652Z,11.03
2022-11-10T23:20:35.093Z,11.02
2022-11-10T23:22:36.571Z,10.99
2022-11-10T23:24:38.099Z,10.98
2022-11-10T23:26:39.569Z,10.95
2022-11-10T23:28:41.210Z,10.92
2022-11-10T23:30:42.656Z,10.89
2022-11-10T23:32:44.146Z,10.86
2022-11-10T23:34:45.786Z,10.83
2022-11-10T23:36:47.310Z,10.83
2022-11-10T23:38:48.899Z,10.80
2022-11-10T23:40:55.716Z,10.76
2022-11-10T23:42:57.162Z,10.76
2022-11-10T23:44:58.567Z,10.75
2022-11-10T23:47:00.059Z,10.72
2022-11-10T23:49:01.470Z,10.68
2022-11-10T23:51:04.435Z,10.65
2022-11-10T23:53:05.898Z,10.63
2022-11-10T23:55:07.923Z,10.60
2022-11-10T23:57:09.435Z,10.60
2022-11-10T23:59:10.861Z,10.55
